createdAt,value
2017-11-08T00:01:23.704Z,99689.70
2017-11-08T00:03:51.272Z,99689.27
2017-11-08T00:06:18.779Z,99688.84
2017-11-08T00:08:46.315Z,99689.27
2017-11-08T00:11:13.826Z,99686.72
2017-11-08T00:13:41.338Z,99687.50
2017-11-08T00:16:08.820Z,99690.09
2017-11-08T00:18:36.341Z,99691.83
2017-11-08T00:21:03.967Z,99688.42
2017-11-08T00:23:36.401Z,99685.89
2017-11-08T00:26:03.888Z,99685.07
2017-11-08T00:28:31.392Z,99698.25
2017-11-08T00:30:58.909Z,99694.02
2017-11-08T00:33:26.446Z,99702.94
2017-11-08T00:35:53.960Z,99694.84
2017-11-08T00:38:21.510Z,99680.81
2017-11-08T00:40:49.019Z,99684.65
2017-11-08T00:43:16.518Z,99685.50
2017-11-08T00:45:44.011Z,99677.31
2017-11-08T00:48:11.528Z,99669.28
2017-11-08T00:50:39.010Z,99666.33
2017-11-08T00:53:10.447Z,99661.19
2017-11-08T00:55:37.961Z,99657.41
2017-11-08T00:58:05.448Z,99653.19
2017-11-08T01:00:34.822Z,99657.84
2017-11-08T01:03:02.363Z,99655.31
2017-11-08T01:05:29.861Z,99658.30
2017-11-08T01:07:57.345Z,99656.56
2017-11-08T01:10:24.883Z,99649.75
2017-11-08T01:12:52.375Z,99650.14
2017-11-08T01:15:19.880Z,99650.40
2017-11-08T01:17:47.412Z,99648.77
2017-11-08T01:20:14.907Z,99658.59
2017-11-08T01:22:42.424Z,99647.55
2017-11-08T01:25:09.921Z,99642.47
2017-11-08T01:27:37.413Z,99641.59
2017-11-08T01:30:04.917Z,99639.88
2017-11-08T01:32:32.441Z,99641.20
2017-11-08T01:34:59.934Z,99639.06
2017-11-08T01:37:33.118Z,99640.80
2017-11-08T01:40:00.620Z,99630.12
2017-11-08T01:42:28.887Z,99623.30
2017-11-08T01:44:56.408Z,99626.31
2017-11-08T01:47:23.886Z,99630.58
2017-11-08T01:49:54.168Z,99618.69
2017-11-08T01:52:21.792Z,99616.95
2017-11-08T01:54:49.286Z,99626.28
2017-11-08T01:57:16.834Z,99621.63
2017-11-08T01:59:44.382Z,99629.30
2017-11-08T02:02:11.887Z,99620.35
2017-11-08T02:04:39.373Z,99629.30
2017-11-08T02:07:06.878Z,99637.03
2017-11-08T02:09:34.401Z,99638.31
2017-11-08T02:12:01.891Z,99638.14
2017-11-08T02:14:29.402Z,99641.63
2017-11-08T02:16:56.911Z,99639.48
2017-11-08T02:19:24.426Z,99633.53
2017-11-08T02:21:53.100Z,99633.98
2017-11-08T02:24:20.626Z,99628.02
2017-11-08T02:29:44.556Z,99622.05
2017-11-08T02:32:14.886Z,99624.19
2017-11-08T02:34:42.405Z,99625.04
2017-11-08T02:37:09.918Z,99627.63
2017-11-08T02:39:37.425Z,99616.09
2017-11-08T02:42:05.785Z,99614.81
2017-11-08T02:44:33.274Z,99619.04
2017-11-08T02:47:00.785Z,99625.86
2017-11-08T02:49:28.304Z,99614.81
2017-11-08T02:51:55.802Z,99616.52
2017-11-08T02:54:24.697Z,99619.43
2017-11-08T02:56:52.196Z,99622.48
2017-11-08T02:59:19.703Z,99622.02
2017-11-08T03:01:47.209Z,99622.48
2017-11-08T03:04:14.702Z,99622.84
2017-11-08T03:06:42.189Z,99626.70
2017-11-08T03:09:09.710Z,99630.58
2017-11-08T03:11:37.221Z,99627.17
2017-11-08T03:14:04.718Z,99630.08
2017-11-08T03:16:32.190Z,99626.64
2017-11-08T03:18:59.666Z,99628.45
2017-11-08T03:21:27.131Z,99629.23
2017-11-08T03:23:54.609Z,99625.36
2017-11-08T03:26:22.095Z,99619.47
2017-11-08T03:28:49.563Z,99630.12
2017-11-08T03:31:17.083Z,99626.18
2017-11-08T03:33:44.553Z,99619.75
2017-11-08T03:36:12.028Z,99621.95
2017-11-08T03:38:39.524Z,99623.37
2017-11-08T03:41:06.988Z,99615.67
2017-11-08T03:43:34.443Z,99620.81
2017-11-08T03:46:01.972Z,99624.25
2017-11-08T03:48:29.430Z,99631.00
2017-11-08T03:50:56.926Z,99627.27
2017-11-08T03:53:24.418Z,99619.20
2017-11-08T03:55:51.895Z,99627.33
2017-11-08T03:58:19.370Z,99627.76
2017-11-08T04:00:46.880Z,99628.58
2017-11-08T04:03:14.430Z,99626.48
2017-11-08T04:05:41.893Z,99622.22
2017-11-08T04:08:09.449Z,99624.78
2017-11-08T04:10:36.900Z,99614.48
2017-11-08T04:13:04.368Z,99618.39
2017-11-08T04:15:31.837Z,99610.30
2017-11-08T04:17:59.329Z,99608.98
2017-11-08T04:20:26.793Z,99617.93
2017-11-08T04:22:54.345Z,99612.81
2017-11-08T04:25:21.826Z,99612.00
2017-11-08T04:27:49.319Z,99615.41
2017-11-08T04:30:16.840Z,99608.59
2017-11-08T04:32:44.315Z,99613.28
2017-11-08T04:35:11.847Z,99612.00
2017-11-08T04:37:39.325Z,99614.13
2017-11-08T04:40:06.784Z,99613.28
2017-11-08T04:42:34.242Z,99620.91
2017-11-08T04:45:01.733Z,99614.98
2017-11-08T04:47:29.199Z,99614.13
2017-11-08T04:49:56.663Z,99618.84
2017-11-08T04:52:24.161Z,99623.92
2017-11-08T04:54:51.681Z,99622.64
2017-11-08T04:57:19.248Z,99619.20
2017-11-08T04:59:52.617Z,99622.58
2017-11-08T05:02:20.144Z,99624.71
2017-11-08T05:04:47.620Z,99620.91
2017-11-08T05:07:15.109Z,99614.92
2017-11-08T05:09:42.566Z,99615.77
2017-11-08T05:12:10.047Z,99613.18
2017-11-08T05:14:37.532Z,99616.20
2017-11-08T05:17:05.001Z,99612.78
2017-11-08T05:19:32.514Z,99620.48
2017-11-08T05:22:00.005Z,99615.70
2017-11-08T05:24:27.476Z,99617.38
2017-11-08T05:26:54.966Z,99615.67
2017-11-08T05:29:22.441Z,99615.34
2017-11-08T05:31:49.949Z,99613.64
2017-11-08T05:34:17.415Z,99615.67
2017-11-08T05:36:44.923Z,99618.65
2017-11-08T05:39:12.399Z,99617.80
2017-11-08T05:41:39.861Z,99618.69
2017-11-08T05:44:07.381Z,99618.72
2017-11-08T05:46:34.875Z,99622.98
2017-11-08T05:49:02.346Z,99624.28
2017-11-08T05:51:29.826Z,99628.94
2017-11-08T05:53:57.453Z,99626.38
2017-11-08T05:56:24.953Z,99626.87
2017-11-08T05:58:52.610Z,99628.13
2017-11-08T06:01:20.074Z,99631.16
2017-11-08T06:03:47.540Z,99634.54
2017-11-08T06:06:15.125Z,99635.33
2017-11-08T06:08:42.602Z,99636.64
2017-11-08T06:11:10.071Z,99634.14
2017-11-08T06:13:37.557Z,99636.31
2017-11-08T06:16:05.024Z,99631.26
2017-11-08T06:18:32.497Z,99637.73
2017-11-08T06:21:00.015Z,99642.02
2017-11-08T06:23:27.518Z,99639.86
2017-11-08T06:25:54.990Z,99643.36
2017-11-08T06:28:22.468Z,99643.36
2017-11-08T06:30:49.932Z,99650.62
2017-11-08T06:33:17.403Z,99645.94
2017-11-08T06:35:44.888Z,99651.07
2017-11-08T06:38:12.367Z,99651.95
2017-11-08T06:40:39.848Z,99649.85
2017-11-08T06:43:07.359Z,99649.39
2017-11-08T06:45:34.844Z,99648.63
2017-11-08T06:48:02.316Z,99651.22
2017-11-08T06:50:32.290Z,99656.81
2017-11-08T06:53:01.716Z,99660.66
2017-11-08T06:55:30.001Z,99653.03
2017-11-08T06:57:57.500Z,99657.30
2017-11-08T07:00:24.983Z,99658.58
2017-11-08T07:02:52.459Z,99655.20
2017-11-08T07:05:19.943Z,99656.05
2017-11-08T07:07:47.449Z,99653.97
2017-11-08T07:10:14.904Z,99650.55
2017-11-08T07:12:42.405Z,99653.10
2017-11-08T07:15:09.888Z,99647.12
2017-11-08T07:17:37.345Z,99643.29
2017-11-08T07:20:04.846Z,99646.69
2017-11-08T07:22:32.329Z,99648.39
2017-11-08T07:24:59.802Z,99648.84
2017-11-08T07:27:27.302Z,99645.04
2017-11-08T07:29:54.787Z,99647.59
2017-11-08T07:32:22.251Z,99656.05
2017-11-08T07:34:49.743Z,99654.34
2017-11-08T07:37:17.210Z,99653.93
2017-11-08T07:39:44.687Z,99659.03
2017-11-08T07:42:12.170Z,99658.61
2017-11-08T07:44:39.724Z,99649.24
2017-11-08T07:47:07.214Z,99648.80
2017-11-08T07:49:34.728Z,99654.30
2017-11-08T07:52:07.517Z,99644.91
2017-11-08T07:54:35.084Z,99646.22
2017-11-08T07:57:02.595Z,99644.47
2017-11-08T07:59:35.646Z,99640.22
2017-11-08T08:02:03.114Z,99636.75
2017-11-08T08:04:30.601Z,99644.84
2017-11-08T08:06:58.169Z,99645.72
2017-11-08T08:09:25.678Z,99642.31
2017-11-08T08:11:53.160Z,99644.07
2017-11-08T08:14:20.644Z,99641.97
2017-11-08T08:16:48.125Z,99643.22
2017-11-08T08:19:30.078Z,99645.34
2017-11-08T08:21:57.560Z,99648.73
2017-11-08T08:24:25.050Z,99647.40
2017-11-08T08:26:52.602Z,99646.55
2017-11-08T08:29:22.032Z,99653.41
2017-11-08T08:31:49.534Z,99656.83
2017-11-08T08:34:17.043Z,99652.55
2017-11-08T08:36:44.529Z,99653.83
2017-11-08T08:39:12.010Z,99650.83
2017-11-08T08:41:39.497Z,99647.40
2017-11-08T08:44:06.974Z,99656.83
2017-11-08T08:46:34.449Z,99655.48
2017-11-08T08:49:01.939Z,99647.82
2017-11-08T08:51:29.459Z,99640.22
2017-11-08T08:53:56.945Z,99649.52
2017-11-08T08:56:24.427Z,99660.59
2017-11-08T08:58:51.890Z,99668.73
2017-11-08T09:01:19.381Z,99671.33
2017-11-08T09:03:46.889Z,99661.89
2017-11-08T09:06:14.357Z,99664.89
2017-11-08T09:08:41.848Z,99670.88
2017-11-08T09:13:59.639Z,99667.88
2017-11-08T09:16:27.182Z,99661.87
2017-11-08T09:18:54.703Z,99657.08
2017-11-08T09:21:22.279Z,99649.85
2017-11-08T09:23:49.814Z,99654.10
2017-11-08T09:26:17.357Z,99651.87
2017-11-08T09:28:44.886Z,99651.92
2017-11-08T09:31:17.883Z,99654.48
2017-11-08T09:33:45.405Z,99653.70
2017-11-08T09:36:14.850Z,99656.28
2017-11-08T09:38:42.371Z,99657.59
2017-11-08T09:41:09.959Z,99660.19
2017-11-08T09:43:37.487Z,99658.51
2017-11-08T09:46:05.011Z,99655.05
2017-11-08T09:48:33.235Z,99655.48
2017-11-08T09:51:00.738Z,99656.76
2017-11-08T09:53:28.267Z,99660.14
2017-11-08T09:55:58.284Z,99665.64
2017-11-08T09:58:25.830Z,99664.39
2017-11-08T10:00:57.189Z,99665.32
2017-11-08T10:05:58.457Z,99667.84
2017-11-08T10:08:26.025Z,99666.15
2017-11-08T10:10:59.099Z,99666.13
2017-11-08T10:13:27.515Z,99666.95
2017-11-08T10:15:55.042Z,99671.63
2017-11-08T10:18:22.576Z,99673.28
2017-11-08T10:20:50.081Z,99665.25
2017-11-08T10:23:20.527Z,99668.25
2017-11-08T10:25:48.144Z,99663.05
2017-11-08T10:28:15.651Z,99667.77
2017-11-08T10:30:43.162Z,99671.63
2017-11-08T10:33:10.693Z,99668.66
2017-11-08T10:35:38.181Z,99661.00
2017-11-08T10:38:08.378Z,99655.03
2017-11-08T10:40:35.929Z,99655.46
2017-11-08T10:43:03.441Z,99656.26
2017-11-08T10:45:30.908Z,99653.28
2017-11-08T10:47:58.387Z,99662.17
2017-11-08T10:50:25.886Z,99666.88
2017-11-08T10:55:51.725Z,99654.45
2017-11-08T10:58:20.236Z,99653.09
2017-11-08T11:00:50.203Z,99658.42
2017-11-08T11:03:17.681Z,99660.49
2017-11-08T11:05:45.238Z,99654.50
2017-11-08T11:08:14.131Z,99649.16
2017-11-08T11:10:41.705Z,99647.98
2017-11-08T11:13:09.258Z,99650.17
2017-11-08T11:15:36.753Z,99650.30
2017-11-08T11:18:04.241Z,99649.48
2017-11-08T11:20:31.749Z,99640.05
2017-11-08T11:22:59.221Z,99643.87
2017-11-08T11:25:26.706Z,99634.60
2017-11-08T11:27:54.190Z,99634.63
2017-11-08T11:30:26.512Z,99639.34
2017-11-08T11:32:54.013Z,99638.16
2017-11-08T11:35:21.529Z,99636.97
2017-11-08T11:37:49.026Z,99636.09
2017-11-08T11:40:16.515Z,99638.25
2017-11-08T11:42:44.081Z,99638.24
2017-11-08T11:45:11.556Z,99637.37
2017-11-08T11:47:39.091Z,99637.82
2017-11-08T11:50:06.610Z,99645.11
2017-11-08T11:52:34.108Z,99641.33
2017-11-08T11:55:01.594Z,99630.21
2017-11-08T11:57:29.094Z,99628.54
2017-11-08T11:59:56.581Z,99630.70
2017-11-08T12:02:24.103Z,99633.67
2017-11-08T12:04:51.648Z,99628.52
2017-11-08T12:07:19.152Z,99626.75
2017-11-08T12:09:46.622Z,99631.09
2017-11-08T12:12:14.152Z,99624.31
2017-11-08T12:14:41.668Z,99630.27
2017-11-08T12:17:09.145Z,99623.83
2017-11-08T12:19:38.481Z,99623.43
2017-11-08T12:22:05.972Z,99624.67
2017-11-08T12:24:33.489Z,99623.80
2017-11-08T12:27:05.772Z,99630.19
2017-11-08T12:29:33.356Z,99625.11
2017-11-08T12:32:00.897Z,99624.68
2017-11-08T12:34:28.388Z,99620.87
2017-11-08T12:36:55.935Z,99618.70
2017-11-08T12:39:23.406Z,99622.06
2017-11-08T12:41:50.916Z,99625.92
2017-11-08T12:44:24.014Z,99634.08
2017-11-08T12:46:51.521Z,99639.21
2017-11-08T12:49:18.988Z,99640.94
2017-11-08T12:51:46.462Z,99644.77
2017-11-08T12:54:13.971Z,99643.55
2017-11-08T12:56:41.450Z,99644.81
2017-11-08T12:59:08.943Z,99641.41
2017-11-08T13:01:36.481Z,99640.98
2017-11-08T13:04:06.668Z,99646.57
2017-11-08T13:06:36.902Z,99649.55
2017-11-08T13:09:04.427Z,99650.41
2017-11-08T13:11:35.855Z,99652.55
2017-11-08T13:14:03.384Z,99653.03
2017-11-08T13:16:30.904Z,99656.02
2017-11-08T13:18:58.411Z,99656.48
2017-11-08T13:21:25.963Z,99659.88
2017-11-08T13:23:53.445Z,99659.52
2017-11-08T13:26:20.936Z,99658.27
2017-11-08T13:28:48.468Z,99660.83
2017-11-08T13:31:15.961Z,99657.86
2017-11-08T13:33:43.476Z,99658.23
2017-11-08T13:36:10.964Z,99652.72
2017-11-08T13:38:38.475Z,99655.22
2017-11-08T13:41:05.967Z,99662.88
2017-11-08T13:43:33.524Z,99653.09
2017-11-08T13:46:01.026Z,99653.49
2017-11-08T13:48:28.512Z,99652.22
2017-11-08T13:50:56.499Z,99653.92
2017-11-08T13:53:23.990Z,99662.86
2017-11-08T13:55:51.499Z,99654.34
2017-11-08T13:58:19.090Z,99653.95
2017-11-08T14:00:46.596Z,99663.31
2017-11-08T14:03:14.268Z,99674.38
2017-11-08T14:05:41.781Z,99668.44
2017-11-08T14:08:09.252Z,99663.26
2017-11-08T14:10:36.734Z,99665.39
2017-11-08T14:13:04.227Z,99663.26
2017-11-08T14:15:31.692Z,99651.77
2017-11-08T14:17:59.173Z,99654.80
2017-11-08T14:20:26.657Z,99659.91
2017-11-08T14:22:54.187Z,99670.98
2017-11-08T14:25:21.678Z,99670.54
2017-11-08T14:27:49.168Z,99667.98
2017-11-08T14:30:16.688Z,99671.82
2017-11-08T14:32:44.155Z,99670.96
2017-11-08T14:35:11.732Z,99672.22
2017-11-08T14:37:39.983Z,99670.55
2017-11-08T14:40:07.466Z,99673.92
2017-11-08T14:42:39.533Z,99676.02
2017-11-08T14:45:07.017Z,99667.54
2017-11-08T14:47:34.531Z,99665.45
2017-11-08T14:50:02.027Z,99670.16
2017-11-08T14:52:29.504Z,99678.69
2017-11-08T14:54:57.003Z,99678.73
2017-11-08T14:57:24.525Z,99677.02
2017-11-08T14:59:52.020Z,99677.89
2017-11-08T15:02:19.492Z,99671.52
2017-11-08T15:04:46.979Z,99678.30
2017-11-08T15:07:14.485Z,99681.70
2017-11-08T15:09:42.007Z,99683.86
2017-11-08T15:12:10.292Z,99678.30
2017-11-08T15:14:42.629Z,99687.20
2017-11-08T15:17:10.139Z,99694.02
2017-11-08T15:19:43.158Z,99693.16
2017-11-08T15:22:10.656Z,99693.61
2017-11-08T15:24:38.135Z,99694.04
2017-11-08T15:27:05.583Z,99688.95
2017-11-08T15:29:33.052Z,99689.78
2017-11-08T15:32:00.546Z,99681.67
2017-11-08T15:34:33.448Z,99689.80
2017-11-08T15:37:00.931Z,99693.22
2017-11-08T15:39:28.414Z,99697.09
2017-11-08T15:41:55.918Z,99694.53
2017-11-08T15:44:23.476Z,99696.68
2017-11-08T15:46:54.856Z,99700.94
2017-11-08T15:49:22.374Z,99694.07
2017-11-08T15:51:49.852Z,99698.32
2017-11-08T15:54:17.318Z,99708.97
2017-11-08T15:56:44.787Z,99710.73
2017-11-08T15:59:12.246Z,99720.47
2017-11-08T16:01:41.654Z,99714.56
2017-11-08T16:04:12.050Z,99716.66
2017-11-08T16:06:39.565Z,99715.39
2017-11-08T16:09:10.773Z,99722.62
2017-11-08T16:11:38.254Z,99712.42
2017-11-08T16:14:05.748Z,99716.64
2017-11-08T16:16:33.233Z,99717.08
2017-11-08T16:19:02.677Z,99714.97
2017-11-08T16:21:38.709Z,99722.17
2017-11-08T16:24:06.211Z,99720.09
2017-11-08T16:26:33.675Z,99729.45
2017-11-08T16:29:01.152Z,99727.73
2017-11-08T16:31:28.675Z,99735.81
2017-11-08T16:33:56.149Z,99732.41
2017-11-08T16:36:23.629Z,99724.73
2017-11-08T16:38:51.133Z,99729.42
2017-11-08T16:41:18.604Z,99731.99
2017-11-08T16:43:46.083Z,99731.98
2017-11-08T16:46:13.605Z,99734.56
2017-11-08T16:48:41.082Z,99733.73
2017-11-08T16:51:08.582Z,99731.17
2017-11-08T16:53:36.081Z,99730.75
2017-11-08T16:56:03.571Z,99727.33
2017-11-08T16:58:31.056Z,99720.88
2017-11-08T17:00:58.575Z,99728.16
2017-11-08T17:03:26.068Z,99732.02
2017-11-08T17:05:53.581Z,99732.87
2017-11-08T17:08:21.253Z,99737.11
2017-11-08T17:10:48.729Z,99738.45
2017-11-08T17:13:16.194Z,99743.95
2017-11-08T17:15:43.670Z,99743.96
2017-11-08T17:18:11.173Z,99757.14
2017-11-08T17:20:38.762Z,99758.81
2017-11-08T17:23:06.262Z,99754.10
2017-11-08T17:25:33.726Z,99752.00
2017-11-08T17:28:01.191Z,99756.69
2017-11-08T17:30:28.677Z,99756.23
2017-11-08T17:32:56.143Z,99759.22
2017-11-08T17:35:23.865Z,99760.52
2017-11-08T17:37:51.367Z,99770.72
2017-11-08T17:40:18.856Z,99775.80
2017-11-08T17:42:46.356Z,99780.06
2017-11-08T17:45:13.850Z,99783.05
2017-11-08T17:47:41.326Z,99788.14
2017-11-08T17:50:08.800Z,99790.68
2017-11-08T17:52:36.952Z,99780.50
2017-11-08T17:55:04.439Z,99779.23
2017-11-08T17:57:32.029Z,99780.92
2017-11-08T17:59:59.698Z,99781.75
2017-11-08T18:02:28.328Z,99777.08
2017-11-08T18:04:55.913Z,99775.81
2017-11-08T18:07:27.871Z,99779.26
2017-11-08T18:09:56.302Z,99786.89
2017-11-08T18:12:23.851Z,99792.84
2017-11-08T18:14:51.482Z,99799.22
2017-11-08T18:17:19.007Z,99798.40
2017-11-08T18:19:46.539Z,99789.48
2017-11-08T18:22:14.040Z,99786.89
2017-11-08T18:24:41.913Z,99786.04
2017-11-08T18:27:09.392Z,99781.78
2017-11-08T18:29:36.902Z,99791.96
2017-11-08T18:32:04.431Z,99806.03
2017-11-08T18:34:32.018Z,99808.18
2017-11-08T18:36:59.503Z,99812.00
2017-11-08T18:39:29.275Z,99819.25
2017-11-08T18:41:56.785Z,99825.19
2017-11-08T18:44:26.101Z,99820.53
2017-11-08T18:46:53.682Z,99824.34
2017-11-08T18:49:21.191Z,99819.25
2017-11-08T18:51:48.694Z,99820.09
2017-11-08T18:54:16.181Z,99823.08
2017-11-08T18:56:43.719Z,99824.76
2017-11-08T18:59:11.281Z,99821.37
2017-11-08T19:01:38.786Z,99825.20
2017-11-08T19:04:06.273Z,99823.92
2017-11-08T19:06:33.770Z,99828.16
2017-11-08T19:09:01.244Z,99831.14
2017-11-08T19:11:28.757Z,99829.44
2017-11-08T19:13:56.284Z,99832.41
2017-11-08T19:16:23.796Z,99829.02
2017-11-08T19:18:51.280Z,99821.39
2017-11-08T19:21:18.865Z,99820.95
2017-11-08T19:23:46.359Z,99832.85
2017-11-08T19:26:13.843Z,99838.38
2017-11-08T19:28:41.538Z,99837.96
2017-11-08T19:31:09.139Z,99839.66
2017-11-08T19:33:36.615Z,99845.61
2017-11-08T19:36:04.169Z,99839.66
2017-11-08T19:38:31.659Z,99838.81
2017-11-08T19:41:00.416Z,99844.75
2017-11-08T19:43:27.964Z,99841.34
2017-11-08T19:45:55.477Z,99843.08
2017-11-08T19:48:22.952Z,99844.36
2017-11-08T19:50:50.445Z,99854.13
2017-11-08T19:53:17.942Z,99850.30
2017-11-08T19:55:45.431Z,99840.09
2017-11-08T19:58:12.994Z,99845.59
2017-11-08T20:00:40.805Z,99856.23
2017-11-08T20:03:08.335Z,99860.05
2017-11-08T20:05:35.876Z,99846.02
2017-11-08T20:08:03.398Z,99855.81
2017-11-08T20:10:30.918Z,99854.95
2017-11-08T20:12:58.501Z,99858.79
2017-11-08T20:15:27.751Z,99860.92
2017-11-08T20:17:55.239Z,99858.36
2017-11-08T20:20:22.786Z,99857.50
2017-11-08T20:22:51.125Z,99862.59
2017-11-08T20:25:18.801Z,99869.83
2017-11-08T20:27:46.383Z,99867.68
2017-11-08T20:30:13.868Z,99865.14
2017-11-08T20:32:41.751Z,99868.12
2017-11-08T20:35:09.325Z,99868.98
2017-11-08T20:37:36.860Z,99869.40
2017-11-08T20:40:04.325Z,99872.38
2017-11-08T20:42:31.806Z,99875.80
2017-11-08T20:44:59.278Z,99866.84
2017-11-08T20:47:26.745Z,99876.20
2017-11-08T20:49:54.233Z,99878.34
2017-11-08T20:52:21.778Z,99876.63
2017-11-08T20:54:49.234Z,99868.98
2017-11-08T20:57:16.734Z,99868.55
2017-11-08T20:59:44.281Z,99863.87
2017-11-08T21:02:11.750Z,99866.42
2017-11-08T21:04:39.261Z,99873.63
2017-11-08T21:07:06.770Z,99881.27
2017-11-08T21:09:34.256Z,99877.88
2017-11-08T21:12:01.868Z,99880.01
2017-11-08T21:14:29.360Z,99875.75
2017-11-08T21:16:59.800Z,99878.32
2017-11-08T21:19:27.411Z,99878.31
2017-11-08T21:21:54.903Z,99883.84
2017-11-08T21:24:22.548Z,99888.10
2017-11-08T21:26:50.084Z,99885.56
2017-11-08T21:29:17.605Z,99882.98
2017-11-08T21:31:45.136Z,99886.80
2017-11-08T21:34:12.608Z,99891.89
2017-11-08T21:36:41.007Z,99891.05
2017-11-08T21:39:08.516Z,99893.60
2017-11-08T21:41:36.105Z,99890.61
2017-11-08T21:44:03.570Z,99885.09
2017-11-08T21:46:32.826Z,99885.95
2017-11-08T21:49:00.304Z,99888.05
2017-11-08T21:51:30.271Z,99885.92
2017-11-08T21:53:58.633Z,99884.66
2017-11-08T21:56:27.414Z,99886.38
2017-11-08T21:58:56.880Z,99888.95
2017-11-08T22:01:24.383Z,99881.73
2017-11-08T22:03:51.859Z,99888.51
2017-11-08T22:06:19.324Z,99880.00
2017-11-08T22:08:46.813Z,99881.70
2017-11-08T22:11:14.330Z,99876.20
2017-11-08T22:13:45.795Z,99874.51
2017-11-08T22:16:13.300Z,99877.45
2017-11-08T22:18:40.807Z,99880.85
2017-11-08T22:21:08.299Z,99882.13
2017-11-08T22:23:35.842Z,99881.30
2017-11-08T22:26:04.080Z,99881.73
2017-11-08T22:28:35.873Z,99878.72
2017-11-08T22:31:03.970Z,99883.80
2017-11-08T22:33:31.433Z,99874.48
2017-11-08T22:35:58.951Z,99877.06
2017-11-08T22:38:27.594Z,99879.17
2017-11-08T22:40:57.956Z,99882.98
2017-11-08T22:43:25.979Z,99879.17
2017-11-08T22:45:53.478Z,99888.53
2017-11-08T22:48:20.946Z,99894.50
2017-11-08T22:50:48.430Z,99890.65
2017-11-08T22:53:15.903Z,99884.69
2017-11-08T22:55:43.374Z,99892.38
2017-11-08T22:58:10.838Z,99888.52
2017-11-08T23:00:41.231Z,99899.16
2017-11-08T23:03:08.690Z,99896.60
2017-11-08T23:05:36.160Z,99892.79
2017-11-08T23:08:03.675Z,99898.73
2017-11-08T23:10:31.155Z,99897.04
2017-11-08T23:12:58.653Z,99905.10
2017-11-08T23:15:26.142Z,99901.72
2017-11-08T23:17:53.598Z,99905.52
2017-11-08T23:20:21.807Z,99903.41
2017-11-08T23:22:50.696Z,99906.80
2017-11-08T23:25:18.929Z,99905.53
2017-11-08T23:27:48.543Z,99903.41
2017-11-08T23:30:17.258Z,99905.11
2017-11-08T23:32:48.151Z,99902.98
2017-11-08T23:35:18.287Z,99906.80
2017-11-08T23:37:49.354Z,99906.81
2017-11-08T23:40:17.003Z,99902.56
2017-11-08T23:42:45.578Z,99907.22
2017-11-08T23:45:13.051Z,99904.66
2017-11-08T23:47:40.603Z,99911.91
2017-11-08T23:50:08.090Z,99906.80
2017-11-08T23:52:35.567Z,99901.30
2017-11-08T23:55:03.033Z,99901.27
2017-11-08T23:57:30.525Z,99897.89
